Apple Creek, OH

10:04 AM EST on March 03, 2015 (GMT -0500)
Weilersville | Change Station
CLOSE
Current Station
Personal Weather Station
Location: Smithville, OH
Elevation: 1102 ft
Nearby Weather Stations

Elev 1102 ft 40.84 °N, 81.85 °W | Updated 47 seconds ago

Overcast
Overcast
26.1 °F
Feels Like 22 °F
N
3.7
Wind Variable Wind from ESE

Today
High -- | Low -- °F
--% Chance of Precip.
Yesterday
High -- | Low -- °F
Precip. -- in
6:58 AM 6:20 PM
Waxing Gibbous, 96% visible
Pressure 30.17 in
Visibility 7.0 miles
Clouds Overcast 6000 ft
Windchill 22 °F
Dew Point 16 °F
Humidity 66%
Rainfall 0.00 in
Snow Depth Not available.
UV 1 out of 12
Pollen .50 out of 12
Air Quality Not available.
Flu Activity Not available.
METAR KBJJ 031456Z AUTO 18006KT 7SM UP OVC060 M04/M09 A3011 RMK AO2 SLP217 P0000 60000 T10441089 56026 TSNO

More Conditions Fewer Conditions

Pressure 30.17 in
Visibility 7.0 miles
Clouds Overcast 6000 ft
Windchill 22 °F
Dew Point 16 °F
Humidity 66%
Rainfall 0.00 in
Snow Depth Not available.
UV 1 out of 12
Pollen .50 out of 12
Air Quality Not available.
Flu Activity Not available.
METAR KBJJ 031456Z AUTO 18006KT 7SM UP OVC060 M04/M09 A3011 RMK AO2 SLP217 P0000 60000 T10441089 56026 TSNO

More Conditions Fewer Conditions

10-Day Weather Forecast

Almanac

Astronomy

Mar. 03, 2015 Rise Set
Actual Time
Civil Twilight
Nautical Twilight
Astronomical Twilight
Moon
Length of Visible Light
Length of Day
Tomorrow will be .
, % of the Moon is Illuminated

Today's Extremes

State Highs State Lows

Community

WunderPhotos

Upload Photos

1,802,133 photos uploaded!

WunderBlogs® & News

Nearby

Air Quality

  Air Quality AQ Index Pollutant
Not available.

Snow Depth

Station Depth Elevation

Earthquake Activity

City Distance Mag. Time & Date
Minimum magnitude displayed is 2.5.

Coastal Water Temperatures

Place Temperature

Nearby Weather Stations

Winter Weather Advisory
Statement as of 9:35 AM EST on March 03, 2015

... Winter Weather Advisory remains in effect until 4 PM EST this
afternoon...

* ice accumulations... a tenth of an inch or less.

* Snow/sleet accumulations... .an inch or less.

* Snow/ice beginning... sleet and freezing rain through mid afternoon
before changing over to all rain.

* Snow/ice ending... rain is expected by late afternoon.

* Impacts... hazardous travel conditions are expected due to
snow... sleet and ice covered roads. Untreated roads and
sidewalks will be slippery.

Precautionary/preparedness actions...

A Winter Weather Advisory is normally issued for a variety of
winter weather conditions such as light snow... blowing snow...
sleet... freezing rain and wind chills. While the weather will be
significant... the word advisory implies that severe winter
weather is not anticipated. Stay tuned to NOAA Weather Radio for
further details or updates.